Time;durP1;ratioP1;P1;durP2;ratioP2;P2;SDS_P1;SDS_P2;PMS_P1;PMS_P2;Temp;Humidity;BMP_temperature;BMP_pressure;BME280_temperature;BME280_humidity;BME280_pressure;Samples;Min_cycle;Max_cycle;Signal;HPM_P1;HPM_P2
2021/11/23 00:00:00;;;;;;;69.93;40.78;;;205.40;2252.80;;;;;;5077182;28;20083;-78
2021/11/23 00:02:27;;;;;;;66.25;40.78;;;205.40;2252.80;;;;;;5077866;28;20024;-77
2021/11/23 00:04:53;;;;;;;69.28;41.40;;;205.40;2252.80;;;;;;5095901;28;20042;-77
2021/11/23 00:07:19;;;;;;;60.33;37.72;;;205.40;2252.80;;;;;;5077738;28;20082;-77
2021/11/23 00:09:44;;;;;;;65.68;41.17;;;205.40;2252.80;;;;;;5077927;28;20032;-77
2021/11/23 00:12:11;;;;;;;66.38;38.10;;;205.40;2252.80;;;;;;5076214;28;20044;-77
2021/11/23 00:14:37;;;;;;;64.28;38.50;;;205.40;2252.80;;;;;;5076508;28;20391;-77
2021/11/23 00:17:03;;;;;;;67.03;37.72;;;205.40;2252.80;;;;;;5076318;28;20510;-77
2021/11/23 00:19:29;;;;;;;72.70;41.35;;;205.40;2252.80;;;;;;5073106;28;20040;-77
2021/11/23 00:21:54;;;;;;;69.60;40.65;;;205.40;2252.80;;;;;;5074471;28;20027;-77
2021/11/23 00:24:20;;;;;;;66.32;38.22;;;205.40;2252.80;;;;;;5075060;28;20028;-77
2021/11/23 00:26:46;;;;;;;59.00;35.53;;;205.40;2252.80;;;;;;5093809;28;20101;-77
2021/11/23 00:29:12;;;;;;;61.75;39.40;;;205.40;2252.80;;;;;;5075371;28;20026;-77
2021/11/23 00:31:37;;;;;;;68.40;37.53;;;205.40;2252.80;;;;;;5093165;28;20039;-78
2021/11/23 00:34:03;;;;;;;60.28;36.08;;;205.30;2252.80;;;;;;5093444;28;20032;-77
2021/11/23 00:36:30;;;;;;;65.35;39.45;;;205.30;2252.80;;;;;;5075777;28;20038;-77
2021/11/23 00:38:56;;;;;;;61.33;37.92;;;205.30;2252.80;;;;;;5075486;28;20028;-77
2021/11/23 00:41:23;;;;;;;69.10;37.92;;;205.30;2252.80;;;;;;5075307;28;20039;-77
2021/11/23 00:43:49;;;;;;;70.20;40.42;;;205.30;2252.80;;;;;;5075273;28;20055;-77
2021/11/23 00:46:16;;;;;;;67.60;40.17;;;205.30;2252.80;;;;;;5075559;28;20364;-77
2021/11/23 00:48:42;;;;;;;68.40;39.65;;;205.30;2252.80;;;;;;5093653;28;20085;-78
2021/11/23 00:51:08;;;;;;;69.00;41.15;;;205.30;2252.80;;;;;;5074503;28;20040;-78
2021/11/23 00:53:34;;;;;;;73.03;42.92;;;205.30;2252.80;;;;;;5093715;28;20028;-77
2021/11/23 00:56:02;;;;;;;73.75;42.42;;;205.30;2252.80;;;;;;5074777;28;20061;-78
2021/11/23 00:58:28;;;;;;;70.10;42.60;;;205.30;2252.80;;;;;;5089854;28;20069;-77
2021/11/23 01:00:53;;;;;;;63.10;40.13;;;205.30;2252.80;;;;;;5074359;28;20753;-77
2021/11/23 01:03:19;;;;;;;70.45;40.10;;;205.30;2252.80;;;;;;5075520;28;20600;-78
2021/11/23 01:05:46;;;;;;;71.95;42.92;;;205.30;2252.80;;;;;;5075148;28;20051;-77
2021/11/23 01:08:13;;;;;;;68.43;40.58;;;205.30;2252.80;;;;;;5093768;28;20017;-78
2021/11/23 01:10:40;;;;;;;67.65;40.30;;;205.30;2252.80;;;;;;5075103;28;20028;-78
2021/11/23 01:13:06;;;;;;;66.57;41.33;;;205.30;2252.80;;;;;;5032103;28;1250705;-78
2021/11/23 01:15:31;;;;;;;73.55;42.40;;;205.20;2252.80;;;;;;5076749;28;20093;-77
2021/11/23 01:17:57;;;;;;;67.10;39.35;;;205.30;2252.80;;;;;;5076073;28;20105;-78
2021/11/23 01:20:23;;;;;;;71.80;41.67;;;205.30;2252.80;;;;;;5094621;28;20027;-78
2021/11/23 01:22:50;;;;;;;68.00;40.88;;;205.30;2252.80;;;;;;5076046;28;20650;-77
2021/11/23 01:25:16;;;;;;;64.55;39.97;;;205.30;2252.80;;;;;;5094349;28;20028;-78
2021/11/23 01:27:42;;;;;;;68.28;39.47;;;205.30;2252.80;;;;;;5075922;28;20024;-77
2021/11/23 01:30:11;;;;;;;59.47;36.35;;;205.30;2252.80;;;;;;5076262;28;20028;-77
2021/11/23 01:32:37;;;;;;;58.45;36.10;;;205.30;2252.80;;;;;;5075742;28;20020;-78
2021/11/23 01:35:04;;;;;;;61.53;37.42;;;205.30;2252.80;;;;;;5076097;28;20043;-77
2021/11/23 01:37:30;;;;;;;62.80;39.33;;;205.30;2252.80;;;;;;5076014;28;20028;-77
2021/11/23 01:39:56;;;;;;;67.32;37.22;;;205.30;2252.80;;;;;;5075459;28;20024;-78
2021/11/23 01:42:22;;;;;;;60.80;34.85;;;205.30;2252.80;;;;;;5076150;28;20039;-77
2021/11/23 01:44:48;;;;;;;58.85;35.85;;;205.30;2252.80;;;;;;5076453;28;20388;-77
2021/11/23 01:47:14;;;;;;;59.80;34.08;;;205.30;2252.80;;;;;;5081386;28;20051;-77
2021/11/23 01:49:40;;;;;;;67.82;36.42;;;205.30;2252.80;;;;;;5075062;28;20483;-77
2021/11/23 01:52:06;;;;;;;56.42;34.80;;;205.30;2252.80;;;;;;5093597;28;20024;-77
2021/11/23 01:54:34;;;;;;;59.97;33.70;;;205.30;2252.80;;;;;;5092050;28;20027;-77
2021/11/23 01:57:00;;;;;;;60.97;35.17;;;205.20;2252.80;;;;;;5075708;28;20032;-78
2021/11/23 01:59:26;;;;;;;65.88;36.65;;;205.30;2252.80;;;;;;5075379;28;20030;-77
2021/11/23 02:01:52;;;;;;;61.33;34.35;;;205.20;2252.80;;;;;;5092280;28;20024;-77
2021/11/23 02:04:18;;;;;;;65.05;37.13;;;205.20;2252.80;;;;;;5075383;28;20040;-77
2021/11/23 02:06:44;;;;;;;66.70;35.88;;;205.20;2252.80;;;;;;5093422;28;20081;-77
2021/11/23 02:09:10;;;;;;;61.20;37.10;;;205.20;2252.80;;;;;;5093658;28;20028;-77
2021/11/23 02:11:36;;;;;;;59.00;36.10;;;205.20;2252.80;;;;;;5073668;28;20042;-77
2021/11/23 02:14:03;;;;;;;60.00;35.67;;;205.20;2252.80;;;;;;5093615;28;20039;-77
2021/11/23 02:16:30;;;;;;;62.67;35.85;;;205.20;2252.80;;;;;;5093127;28;20720;-77
2021/11/23 02:18:56;;;;;;;59.25;33.83;;;205.20;2252.80;;;;;;5080789;28;20016;-77
2021/11/23 02:21:22;;;;;;;60.35;35.55;;;205.20;2252.80;;;;;;5073453;28;20043;-77
2021/11/23 02:23:47;;;;;;;66.38;36.88;;;205.20;2252.80;;;;;;5093096;28;20036;-78
2021/11/23 02:26:13;;;;;;;62.97;37.72;;;205.10;2252.80;;;;;;5091817;28;20035;-77
2021/11/23 02:28:39;;;;;;;64.43;36.25;;;205.10;2252.80;;;;;;5073470;28;20035;-76
2021/11/23 02:31:06;;;;;;;58.95;35.08;;;205.10;2252.80;;;;;;5074540;28;20028;-77
2021/11/23 02:33:32;;;;;;;62.00;34.78;;;205.10;2252.80;;;;;;5074075;28;20104;-77
2021/11/23 02:36:01;;;;;;;58.08;35.58;;;205.20;2252.80;;;;;;5074546;28;20059;-77
2021/11/23 02:38:28;;;;;;;61.50;35.97;;;205.10;2252.80;;;;;;5073892;28;20073;-77
2021/11/23 02:40:54;;;;;;;65.63;36.22;;;205.10;2252.80;;;;;;5073678;28;20031;-78
2021/11/23 02:43:21;;;;;;;62.53;36.15;;;205.10;2252.80;;;;;;5074295;28;20036;-77
2021/11/23 02:45:47;;;;;;;67.82;37.03;;;205.20;2252.80;;;;;;5075050;28;20016;-78
2021/11/23 02:48:13;;;;;;;63.67;37.00;;;205.10;2252.80;;;;;;5074304;28;20028;-77
2021/11/23 02:50:43;;;;;;;63.22;35.65;;;205.10;2252.80;;;;;;5092630;28;20395;-78
2021/11/23 02:53:08;;;;;;;62.65;35.15;;;205.10;2252.80;;;;;;5091426;28;20436;-77
2021/11/23 02:55:36;;;;;;;64.10;34.13;;;205.10;2252.80;;;;;;5074145;28;20024;-78
2021/11/23 02:58:04;;;;;;;64.18;36.78;;;205.10;2252.80;;;;;;5074806;28;20399;-77
2021/11/23 03:00:30;;;;;;;65.45;38.90;;;205.10;2252.80;;;;;;5091218;28;20024;-77
2021/11/23 03:02:56;;;;;;;63.28;35.70;;;205.10;2252.80;;;;;;5074660;28;20118;-78
2021/11/23 03:05:24;;;;;;;63.55;36.55;;;205.20;2252.80;;;;;;5074091;28;20789;-78
2021/11/23 03:07:51;;;;;;;65.13;40.03;;;205.20;2252.80;;;;;;5073138;28;20077;-78
2021/11/23 03:10:18;;;;;;;61.85;35.47;;;205.10;2252.80;;;;;;5069793;28;20429;-78
2021/11/23 03:12:49;;;;;;;63.33;35.50;;;205.10;2252.80;;;;;;5086196;28;20101;-78
2021/11/23 03:15:16;;;;;;;67.28;35.50;;;205.10;2252.80;;;;;;5073922;28;20024;-77
2021/11/23 03:17:43;;;;;;;65.45;37.05;;;205.10;2252.80;;;;;;5073247;28;20119;-77
2021/11/23 03:20:10;;;;;;;69.78;34.80;;;205.10;2252.80;;;;;;5070101;28;20074;-77
2021/11/23 03:22:36;;;;;;;62.85;36.50;;;205.10;2252.80;;;;;;5071802;28;20032;-77
2021/11/23 03:25:04;;;;;;;64.32;35.80;;;205.00;2252.80;;;;;;5072097;28;20411;-78
2021/11/23 03:27:30;;;;;;;59.40;35.72;;;205.00;2252.80;;;;;;5072010;28;20028;-77
2021/11/23 03:29:56;;;;;;;61.90;35.00;;;205.00;2252.80;;;;;;5054129;28;20028;-77
2021/11/23 03:32:22;;;;;;;68.80;38.88;;;205.00;2252.80;;;;;;5071770;28;20083;-77
2021/11/23 03:34:50;;;;;;;63.22;35.33;;;205.00;2252.80;;;;;;5071718;28;20025;-77
2021/11/23 03:37:19;;;;;;;61.83;35.20;;;205.00;2252.80;;;;;;5059276;28;20021;-77
2021/11/23 03:39:45;;;;;;;73.63;37.10;;;205.00;2252.80;;;;;;5083919;28;20024;-77
2021/11/23 03:42:11;;;;;;;60.45;34.42;;;205.00;2252.80;;;;;;5094032;28;20031;-77
2021/11/23 03:44:38;;;;;;;60.13;34.58;;;204.90;2252.80;;;;;;5091072;28;20036;-77
2021/11/23 03:47:06;;;;;;;57.25;34.35;;;204.90;2252.80;;;;;;5073708;28;20042;-78
2021/11/23 03:49:32;;;;;;;59.03;31.77;;;204.90;2252.80;;;;;;5072879;28;20024;-77
2021/11/23 03:51:58;;;;;;;58.15;31.30;;;204.90;2252.80;;;;;;5091543;28;20036;-77
2021/11/23 03:54:24;;;;;;;57.13;33.90;;;204.90;2252.80;;;;;;5070109;28;20060;-77
2021/11/23 03:56:51;;;;;;;56.00;33.25;;;204.90;2252.80;;;;;;5057672;28;20436;-77
2021/11/23 03:59:17;;;;;;;54.15;29.38;;;204.90;2252.80;;;;;;5071601;28;20088;-78
2021/11/23 04:01:44;;;;;;;54.95;30.27;;;205.20;2252.80;;;;;;5086375;28;20114;-77
2021/11/23 04:04:10;;;;;;;53.03;29.25;;;204.90;2252.80;;;;;;5085387;28;20118;-77
2021/11/23 04:06:35;;;;;;;53.80;27.70;;;204.90;2252.80;;;;;;5073151;28;20153;-77
2021/11/23 04:09:02;;;;;;;59.13;30.85;;;204.90;2252.80;;;;;;5087493;28;20028;-77
2021/11/23 04:11:28;;;;;;;62.47;30.48;;;204.90;2252.80;;;;;;5085257;28;20044;-77
2021/11/23 04:13:53;;;;;;;51.22;30.10;;;204.80;2252.80;;;;;;5088564;28;20047;-77
2021/11/23 04:16:21;;;;;;;54.67;29.10;;;204.80;2252.80;;;;;;5089934;28;20035;-77
2021/11/23 04:18:47;;;;;;;51.17;30.73;;;204.80;2252.80;;;;;;5065981;28;20028;-77
2021/11/23 04:21:13;;;;;;;56.50;30.08;;;204.80;2252.80;;;;;;5066043;28;20028;-77
2021/11/23 04:23:38;;;;;;;54.75;30.25;;;204.80;2252.80;;;;;;5065720;28;20383;-77
2021/11/23 04:26:05;;;;;;;51.63;28.20;;;204.80;2252.80;;;;;;5081259;28;20455;-77
2021/11/23 04:28:30;;;;;;;55.53;27.42;;;180.10;2252.80;;;;;;5081402;28;20017;-77
2021/11/23 04:30:56;;;;;;;49.00;26.83;;;180.10;2252.80;;;;;;5072000;28;20090;-77
2021/11/23 04:33:22;;;;;;;56.42;28.38;;;180.10;2252.80;;;;;;5089834;28;20046;-77
2021/11/23 04:35:48;;;;;;;46.97;26.23;;;180.10;2252.80;;;;;;5073634;28;20086;-77
2021/11/23 04:38:14;;;;;;;49.63;26.25;;;180.00;2252.80;;;;;;5091360;28;20020;-78
2021/11/23 04:40:40;;;;;;;41.33;25.20;;;180.00;2252.80;;;;;;5088656;28;20483;-77
2021/11/23 04:43:06;;;;;;;47.65;26.05;;;179.90;2252.80;;;;;;5082654;28;20036;-77
2021/11/23 04:45:33;;;;;;;43.10;23.88;;;179.90;2252.80;;;;;;5082681;28;20539;-77
2021/11/23 04:48:00;;;;;;;43.83;24.10;;;179.80;2252.80;;;;;;5074169;28;20077;-77
2021/11/23 04:50:26;;;;;;;41.67;23.00;;;179.80;2252.80;;;;;;5093295;28;20024;-77
2021/11/23 04:52:52;;;;;;;37.63;21.40;;;179.80;2252.80;;;;;;5073863;28;20130;-77
2021/11/23 04:55:18;;;;;;;39.13;22.13;;;179.80;2252.80;;;;;;5088518;28;20056;-77
2021/11/23 04:57:44;;;;;;;44.58;23.13;;;180.00;2252.80;;;;;;5062152;28;20475;-77
2021/11/23 05:00:15;;;;;;;40.35;22.95;;;179.70;2252.80;;;;;;5072696;28;20031;-77
2021/11/23 05:02:41;;;;;;;40.80;22.35;;;179.70;2252.80;;;;;;5075867;28;20031;-78
2021/11/23 05:05:08;;;;;;;34.40;21.10;;;179.60;2252.80;;;;;;5089125;28;20036;-77
2021/11/23 05:07:34;;;;;;;41.15;20.55;;;179.60;2252.80;;;;;;5076543;28;20031;-76
2021/11/23 05:10:00;;;;;;;39.03;23.38;;;179.50;2252.80;;;;;;5075467;28;20024;-77
2021/11/23 05:12:26;;;;;;;33.88;20.08;;;179.50;2252.80;;;;;;5093390;28;20136;-76
2021/11/23 05:14:52;;;;;;;36.42;21.60;;;179.50;2252.80;;;;;;5076189;28;20028;-77
2021/11/23 05:17:19;;;;;;;33.80;20.20;;;179.50;2252.80;;;;;;5074956;28;20028;-77
2021/11/23 05:19:44;;;;;;;34.35;17.23;;;179.40;2252.80;;;;;;5094201;28;20047;-77
2021/11/23 05:22:10;;;;;;;35.67;18.48;;;179.40;2252.80;;;;;;5094147;28;20062;-77
2021/11/23 05:24:36;;;;;;;29.70;16.08;;;179.30;2252.80;;;;;;5076343;28;20056;-77
2021/11/23 05:27:03;;;;;;;31.52;18.20;;;179.30;2252.80;;;;;;5075885;28;20021;-77
2021/11/23 05:29:28;;;;;;;38.25;17.80;;;179.30;2252.80;;;;;;5094565;28;20020;-77
2021/11/23 05:31:54;;;;;;;32.88;18.00;;;179.20;2252.80;;;;;;5075528;28;20379;-77
2021/11/23 05:34:20;;;;;;;33.35;19.13;;;179.20;2252.80;;;;;;5075979;28;20021;-77
2021/11/23 05:36:46;;;;;;;26.38;17.23;;;179.20;2252.80;;;;;;5075530;28;20023;-77
2021/11/23 05:39:13;;;;;;;31.10;17.63;;;154.50;2252.80;;;;;;5075821;28;20016;-77
2021/11/23 05:41:39;;;;;;;25.70;16.67;;;154.50;2252.80;;;;;;5094162;28;20038;-77
2021/11/23 05:44:05;;;;;;;30.98;17.08;;;154.50;2252.80;;;;;;5093969;28;20526;-77
2021/11/23 05:46:31;;;;;;;30.27;17.85;;;154.40;2252.80;;;;;;5093190;28;20390;-77
2021/11/23 05:48:58;;;;;;;28.60;16.92;;;154.40;2252.80;;;;;;5075088;28;20040;-77
2021/11/23 05:51:24;;;;;;;33.65;16.73;;;154.40;2252.80;;;;;;5075465;28;20039;-77
2021/11/23 05:53:50;;;;;;;27.38;15.63;;;154.40;2252.80;;;;;;5074710;28;20028;-77
2021/11/23 05:56:16;;;;;;;37.10;18.65;;;154.30;2252.80;;;;;;5075111;28;20028;-77
2021/11/23 05:58:42;;;;;;;32.28;16.30;;;154.30;2252.80;;;;;;5074439;28;20034;-77
2021/11/23 06:01:08;;;;;;;29.02;16.55;;;154.30;2252.80;;;;;;5075397;28;20063;-78
2021/11/23 06:03:34;;;;;;;24.65;14.73;;;154.20;2252.80;;;;;;5075267;28;20024;-77
2021/11/23 06:06:00;;;;;;;27.33;16.17;;;154.20;2252.80;;;;;;5074303;28;20062;-77
2021/11/23 06:08:26;;;;;;;22.67;13.35;;;154.20;2252.80;;;;;;5074932;28;20395;-77
2021/11/23 06:10:52;;;;;;;27.63;13.70;;;154.20;2252.80;;;;;;5093083;28;20024;-77
2021/11/23 06:13:17;;;;;;;25.02;13.38;;;154.10;2252.80;;;;;;5093484;28;20047;-77
2021/11/23 06:15:47;;;;;;;23.42;12.73;;;154.10;2252.80;;;;;;5074899;28;20428;-77
2021/11/23 06:18:14;;;;;;;21.70;12.75;;;154.10;2252.80;;;;;;5074874;28;20020;-77
2021/11/23 06:20:49;;;;;;;24.52;14.45;;;154.10;2252.80;;;;;;5074924;28;20080;-77
2021/11/23 06:23:19;;;;;;;21.73;14.13;;;154.10;2252.80;;;;;;5074999;28;20028;-77
2021/11/23 06:25:46;;;;;;;20.42;12.55;;;154.10;2252.80;;;;;;5091987;28;20548;-77
2021/11/23 06:28:13;;;;;;;24.00;13.82;;;154.00;2252.80;;;;;;5090808;28;20028;-77
2021/11/23 06:30:40;;;;;;;20.08;11.75;;;154.00;2252.80;;;;;;5092278;28;20475;-77
2021/11/23 06:33:05;;;;;;;19.30;11.00;;;154.00;2252.80;;;;;;5094642;28;20142;-77
2021/11/23 06:35:31;;;;;;;18.05;11.93;;;154.00;2252.80;;;;;;5098352;28;20103;-78
2021/11/23 06:37:57;;;;;;;20.55;11.73;;;154.00;2252.80;;;;;;5087673;28;20028;-77
2021/11/23 06:40:23;;;;;;;21.40;12.32;;;154.00;2252.80;;;;;;5082919;28;20011;-77
2021/11/23 06:42:49;;;;;;;21.17;11.30;;;154.10;2252.80;;;;;;5110270;28;20032;-78
2021/11/23 06:45:15;;;;;;;21.95;13.20;;;154.10;2252.80;;;;;;5082778;28;20032;-77
2021/11/23 06:47:41;;;;;;;17.13;11.27;;;154.10;2252.80;;;;;;5089595;28;20024;-77
2021/11/23 06:50:08;;;;;;;20.63;11.45;;;154.10;2252.80;;;;;;5073701;28;20024;-77
2021/11/23 06:52:33;;;;;;;18.30;10.63;;;154.10;2252.80;;;;;;5073425;28;20038;-77
2021/11/23 06:54:59;;;;;;;20.23;11.18;;;154.10;2252.80;;;;;;5093880;28;20091;-77
2021/11/23 06:57:25;;;;;;;17.70;10.98;;;154.10;2252.80;;;;;;5075438;28;20451;-77
2021/11/23 06:59:51;;;;;;;20.50;12.20;;;154.10;2252.80;;;;;;5092117;28;20451;-77
2021/11/23 07:02:16;;;;;;;16.25;10.20;;;154.10;2252.80;;;;;;5092969;28;20032;-77
2021/11/23 07:04:42;;;;;;;18.17;11.02;;;154.10;2252.80;;;;;;5095089;28;20441;-77
2021/11/23 07:07:11;;;;;;;18.38;10.38;;;154.20;2252.80;;;;;;5074519;28;20483;-77
2021/11/23 07:09:37;;;;;;;18.30;13.30;;;154.20;2252.80;;;;;;5072355;28;20071;-77
2021/11/23 07:12:04;;;;;;;18.63;11.98;;;154.20;2252.80;;;;;;5073660;28;20040;-77
2021/11/23 07:14:31;;;;;;;19.60;11.38;;;154.20;2252.80;;;;;;5090624;28;20186;-77
2021/11/23 07:16:56;;;;;;;18.42;10.55;;;154.30;2252.80;;;;;;5074522;28;20039;-77
2021/11/23 07:19:22;;;;;;;20.25;11.57;;;154.30;2252.80;;;;;;5092333;28;20032;-77
2021/11/23 07:21:48;;;;;;;18.27;11.60;;;154.30;2252.80;;;;;;5073021;28;20040;-77
2021/11/23 07:24:14;;;;;;;18.27;11.65;;;154.30;2252.80;;;;;;5074035;28;20425;-77
2021/11/23 07:26:40;;;;;;;23.42;12.32;;;154.40;2252.80;;;;;;5091028;28;20370;-78
2021/11/23 07:29:07;;;;;;;19.13;12.65;;;154.40;2252.80;;;;;;5091979;28;20020;-78
2021/11/23 07:31:33;;;;;;;20.55;12.20;;;154.50;2252.80;;;;;;5073213;28;20084;-77
2021/11/23 07:34:00;;;;;;;19.92;11.05;;;179.20;2252.80;;;;;;5073062;28;20032;-77
2021/11/23 07:36:26;;;;;;;18.88;10.40;;;179.20;2252.80;;;;;;5081869;28;20446;-78
2021/11/23 07:38:55;;;;;;;18.55;12.15;;;179.30;2252.80;;;;;;5073570;28;20199;-77
2021/11/23 07:41:21;;;;;;;19.60;11.95;;;179.20;2252.80;;;;;;5091757;28;20036;-77
2021/11/23 07:43:47;;;;;;;17.15;10.70;;;179.30;2252.80;;;;;;5073595;28;20020;-78
2021/11/23 07:46:13;;;;;;;19.13;10.88;;;179.40;2252.80;;;;;;5091914;28;20034;-77
2021/11/23 07:48:39;;;;;;;17.23;10.77;;;179.50;2252.80;;;;;;5073569;28;20081;-77
2021/11/23 07:51:05;;;;;;;17.95;11.65;;;179.50;2252.80;;;;;;5091758;28;20027;-77
2021/11/23 07:53:31;;;;;;;22.00;14.07;;;179.60;2252.80;;;;;;5073340;28;20035;-77
2021/11/23 07:55:57;;;;;;;18.42;11.75;;;179.70;2252.80;;;;;;5073243;28;20032;-77
2021/11/23 07:58:23;;;;;;;23.90;13.23;;;179.80;2252.80;;;;;;5091139;28;20032;-78
2021/11/23 08:00:49;;;;;;;19.45;12.05;;;179.90;2252.80;;;;;;5090436;28;20047;-77
2021/11/23 08:03:14;;;;;;;16.73;10.27;;;180.00;2252.80;;;;;;5073162;28;20063;-78
2021/11/23 08:05:41;;;;;;;17.52;11.30;;;180.10;2252.80;;;;;;5091306;28;20035;-77
2021/11/23 08:08:09;;;;;;;15.93;10.75;;;204.80;2252.80;;;;;;5092242;28;20491;-77
2021/11/23 08:10:35;;;;;;;17.20;8.98;;;204.90;2252.80;;;;;;5075394;28;20429;-77
2021/11/23 08:13:02;;;;;;;14.20;9.13;;;204.90;2252.80;;;;;;5077898;28;20040;-77
2021/11/23 08:15:28;;;;;;;13.95;9.27;;;204.90;2252.80;;;;;;5095607;28;20028;-77
2021/11/23 08:17:54;;;;;;;16.23;9.60;;;205.00;2252.80;;;;;;5077745;28;20112;-77
2021/11/23 08:20:20;;;;;;;11.30;7.97;;;205.20;2252.80;;;;;;5095127;28;20111;-77
2021/11/23 08:22:48;;;;;;;17.75;9.20;;;205.30;2252.80;;;;;;5077186;28;20024;-77
2021/11/23 08:25:15;;;;;;;12.60;9.00;;;205.30;2252.80;;;;;;5077290;28;20506;-77
2021/11/23 08:27:41;;;;;;;13.95;8.75;;;205.50;2252.80;;;;;;5095278;28;20043;-77
2021/11/23 08:30:09;;;;;;;15.02;8.77;;;205.40;2252.80;;;;;;5095165;28;20101;-77
2021/11/23 08:32:35;;;;;;;13.15;9.15;;;205.40;2252.80;;;;;;5075271;28;20036;-77
2021/11/23 08:35:03;;;;;;;13.13;9.00;;;205.50;2252.80;;;;;;5095581;28;20024;-77
2021/11/23 08:37:29;;;;;;;17.38;11.15;;;205.60;2252.80;;;;;;5076359;28;20131;-77
2021/11/23 08:39:55;;;;;;;14.68;9.73;;;205.60;2252.80;;;;;;5094881;28;20386;-77
2021/11/23 08:42:22;;;;;;;14.05;9.77;;;230.40;2252.80;;;;;;5094520;28;20494;-77
2021/11/23 08:44:49;;;;;;;18.77;12.10;;;230.40;2252.80;;;;;;5077082;28;20032;-77
2021/11/23 08:47:16;;;;;;;15.60;10.77;;;230.50;2252.80;;;;;;5076730;28;20030;-77
2021/11/23 08:49:42;;;;;;;17.90;9.98;;;230.70;2252.80;;;;;;5076331;28;20479;-77
2021/11/23 08:52:09;;;;;;;16.98;9.88;;;230.90;2252.80;;;;;;5075197;28;20032;-77
2021/11/23 08:54:35;;;;;;;16.17;11.60;;;231.20;2252.80;;;;;;5075759;28;20016;-77
2021/11/23 08:57:04;;;;;;;22.73;12.75;;;231.20;2252.80;;;;;;5080403;28;20024;-77
2021/11/23 08:59:33;;;;;;;15.77;9.60;;;256.10;2252.80;;;;;;5086492;28;20028;-78
2021/11/23 09:02:00;;;;;;;35.95;12.65;;;256.10;2252.80;;;;;;5107761;28;20028;-76
2021/11/23 09:04:26;;;;;;;14.65;9.18;;;256.20;2252.80;;;;;;5103815;28;20050;-76
2021/11/23 09:06:52;;;;;;;19.20;9.40;;;256.20;2252.80;;;;;;5079102;28;20027;-76
2021/11/23 09:09:23;;;;;;;14.90;9.55;;;256.40;2252.80;;;;;;5075743;28;20032;-76
2021/11/23 09:11:49;;;;;;;16.85;9.77;;;256.60;2252.80;;;;;;5093874;28;20127;-76
2021/11/23 09:14:14;;;;;;;16.73;10.35;;;256.60;2252.80;;;;;;5094497;28;20501;-76
2021/11/23 09:16:40;;;;;;;19.00;9.73;;;256.90;2252.80;;;;;;5075106;28;20024;-76
2021/11/23 09:19:07;;;;;;;16.33;10.02;;;281.70;2278.40;;;;;;5094184;28;20072;-77
2021/11/23 09:21:33;;;;;;;22.13;9.90;;;282.10;2278.40;;;;;;5075115;28;20034;-77
2021/11/23 09:23:59;;;;;;;16.73;9.88;;;282.20;2278.40;;;;;;5075436;28;20043;-77
2021/11/23 09:26:25;;;;;;;19.08;10.50;;;282.50;2278.40;;;;;;5093623;28;20141;-76
2021/11/23 09:28:52;;;;;;;17.65;10.10;;;307.20;2304.00;;;;;;5093885;28;20025;-77
2021/11/23 09:31:18;;;;;;;18.58;9.30;;;307.40;2304.00;;;;;;5074708;28;20107;-77
2021/11/23 09:33:44;;;;;;;17.60;9.23;;;282.50;2278.40;;;;;;5075220;28;20120;-77
2021/11/23 09:36:10;;;;;;;15.07;9.80;;;282.50;2278.40;;;;;;5075411;28;20056;-77
2021/11/23 09:38:37;;;;;;;22.48;10.45;;;282.50;2278.40;;;;;;5074995;28;20048;-77
2021/11/23 09:41:07;;;;;;;20.48;10.55;;;282.50;2278.40;;;;;;5093818;28;20016;-76
2021/11/23 09:43:33;;;;;;;21.00;10.00;;;307.70;2304.00;;;;;;5075500;28;20028;-77
2021/11/23 09:45:59;;;;;;;24.67;10.25;;;308.00;2304.00;;;;;;5093503;28;20504;-77
2021/11/23 09:48:26;;;;;;;15.30;9.43;;;308.10;2304.00;;;;;;5070135;28;20023;-77
2021/11/23 09:50:53;;;;;;;20.77;10.63;;;308.10;2304.00;;;;;;5073860;28;20153;-76
2021/11/23 09:53:21;;;;;;;14.90;8.50;;;308.10;2304.00;;;;;;5073823;28;20124;-77
2021/11/23 09:55:49;;;;;;;15.48;9.45;;;332.90;2329.60;;;;;;5092833;28;20028;-77
2021/11/23 09:58:15;;;;;;;18.67;10.15;;;333.00;2329.60;;;;;;5090485;28;20387;-77
2021/11/23 10:00:48;;;;;;;16.80;9.07;;;333.00;2329.60;;;;;;5072110;28;20027;-76
2021/11/23 10:03:23;;;;;;;11.63;8.18;;;333.30;2329.60;;;;;;5074702;28;20390;-76
2021/11/23 10:05:51;;;;;;;14.13;9.90;;;333.20;2329.60;;;;;;5084393;28;20036;-77
2021/11/23 10:08:19;;;;;;;16.70;11.18;;;333.00;2329.60;;;;;;5082805;28;20077;-77
2021/11/23 10:10:47;;;;;;;15.95;10.05;;;333.10;2329.60;;;;;;5062651;28;20162;-76
2021/11/23 10:13:16;;;;;;;17.20;11.38;;;332.80;2329.60;;;;;;5072493;28;20135;-76
2021/11/23 10:15:45;;;;;;;18.48;8.98;;;333.00;2329.60;;;;;;5073726;28;20039;-77
2021/11/23 10:18:14;;;;;;;16.30;11.07;;;333.20;2329.60;;;;;;5071904;28;20093;-77
2021/11/23 10:20:44;;;;;;;24.10;10.18;;;333.20;2329.60;;;;;;5083173;28;20029;-76
2021/11/23 10:23:38;;;;;;;19.02;10.15;;;333.30;2329.60;;;;;;5086573;28;20024;-77
2021/11/23 10:26:19;;;;;;;17.00;9.98;;;333.60;2329.60;;;;;;5083421;28;20047;-77
2021/11/23 10:28:57;;;;;;;15.90;9.10;;;358.60;2329.60;;;;;;5083512;28;20028;-77
2021/11/23 10:31:30;;;;;;;17.10;9.68;;;333.60;2329.60;;;;;;5065519;28;20383;-77
2021/11/23 10:33:59;;;;;;;13.27;7.78;;;358.40;2329.60;;;;;;5087303;28;20024;-77
2021/11/23 10:36:33;;;;;;;13.55;9.57;;;358.50;2329.60;;;;;;5064584;28;20059;-77
2021/11/23 10:39:09;;;;;;;12.93;8.70;;;358.60;2329.60;;;;;;5081686;28;20032;-77
2021/11/23 10:41:36;;;;;;;13.80;9.65;;;358.90;2329.60;;;;;;5080782;28;20571;-77
2021/11/23 10:44:03;;;;;;;15.93;9.10;;;359.00;2329.60;;;;;;5080307;28;20040;-77
2021/11/23 10:46:31;;;;;;;16.83;9.70;;;359.30;2329.60;;;;;;5082318;28;20395;-78
2021/11/23 10:48:59;;;;;;;14.60;8.82;;;384.10;2329.60;;;;;;5066485;28;20538;-77
2021/11/23 10:51:35;;;;;;;13.77;8.90;;;359.20;2329.60;;;;;;5079247;28;20128;-77
2021/11/23 10:54:17;;;;;;;11.55;8.75;;;359.20;2329.60;;;;;;5067566;28;20395;-78
2021/11/23 10:57:06;;;;;;;13.05;9.00;;;384.00;2329.60;;;;;;5081763;28;20391;-77
2021/11/23 10:59:38;;;;;;;15.52;8.75;;;384.00;2329.60;;;;;;5082529;28;20044;-77
2021/11/23 11:02:05;;;;;;;18.88;9.90;;;384.30;2329.60;;;;;;5084880;28;20032;-78
2021/11/23 11:04:34;;;;;;;17.75;8.43;;;384.70;2329.60;;;;;;5078208;28;20126;-77
2021/11/23 11:07:01;;;;;;;10.57;7.72;;;384.20;2329.60;;;;;;5087844;28;20024;-77
2021/11/23 11:09:28;;;;;;;17.83;10.32;;;384.40;2329.60;;;;;;5086484;28;20390;-77
2021/11/23 11:11:54;;;;;;;13.52;9.18;;;384.40;2329.60;;;;;;5082940;28;20415;-77
2021/11/23 11:14:21;;;;;;;14.93;9.30;;;384.40;2329.60;;;;;;5069183;28;20478;-77
2021/11/23 11:16:48;;;;;;;17.05;9.93;;;384.30;2329.60;;;;;;5071735;28;20032;-77
2021/11/23 11:19:15;;;;;;;14.32;10.20;;;384.50;2329.60;;;;;;5089602;28;20032;-80
2021/11/23 11:21:47;;;;;;;12.68;9.73;;;384.50;2329.60;;;;;;5091395;28;20020;-77
2021/11/23 11:24:33;;;;;;;11.13;7.85;;;384.20;2329.60;;;;;;5079230;28;20063;-78
2021/11/23 11:27:21;;;;;;;11.48;7.97;;;384.30;2329.60;;;;;;5090262;28;20031;-77
2021/11/23 11:29:46;;;;;;;22.90;9.65;;;384.20;2329.60;;;;;;5091555;28;20491;-77
2021/11/23 11:32:33;;;;;;;14.80;8.35;;;384.10;2329.60;;;;;;5090402;28;20046;-78
2021/11/23 11:35:25;;;;;;;12.70;8.55;;;384.00;2329.60;;;;;;5088590;28;20035;-78
2021/11/23 11:37:56;;;;;;;12.10;8.88;;;384.00;2329.60;;;;;;5080528;28;20027;-77
2021/11/23 11:40:32;;;;;;;14.82;8.32;;;384.30;2329.60;;;;;;5074092;28;20039;-78
2021/11/23 11:43:06;;;;;;;11.55;8.82;;;384.10;2329.60;;;;;;5074737;28;20035;-78
2021/11/23 11:45:48;;;;;;;17.30;9.00;;;384.10;2329.60;;;;;;5077032;28;20495;-77
2021/11/23 11:48:29;;;;;;;15.73;9.95;;;384.20;2329.60;;;;;;5079668;28;20127;-77
2021/11/23 11:51:03;;;;;;;14.00;8.80;;;384.20;2329.60;;;;;;5075004;28;20589;-77
2021/11/23 11:53:51;;;;;;;13.82;8.70;;;384.30;2329.60;;;;;;5082636;28;20028;-77
2021/11/23 11:56:38;;;;;;;11.32;8.50;;;384.20;2329.60;;;;;;5077102;28;20040;-77
2021/11/23 11:59:23;;;;;;;15.77;8.80;;;359.30;2329.60;;;;;;5080673;28;20434;-77
2021/11/23 12:02:06;;;;;;;16.05;8.50;;;384.00;2329.60;;;;;;5089211;28;20089;-78